Time;durP1;ratioP1;P1;durP2;ratioP2;P2;SDS_P1;SDS_P2;PMS_P1;PMS_P2;Temp;Humidity;BMP_temperature;BMP_pressure;BME280_temperature;BME280_humidity;BME280_pressure;Samples;Min_cycle;Max_cycle;Signal;HPM_P1;HPM_P2
2022/05/23 00:01:41;;;;;;;9.13;4.10;;;;;;;16.79;57.56;100659.13;5008625;28;20530;-78
2022/05/23 00:04:06;;;;;;;6.22;4.20;;;;;;;16.77;57.52;100653.94;5006369;28;20033;-77
2022/05/23 00:06:31;;;;;;;6.82;4.32;;;;;;;16.75;57.91;100632.16;5009179;28;20423;-77
2022/05/23 00:08:57;;;;;;;8.93;4.00;;;;;;;16.73;58.19;100625.28;5009713;28;20045;-77
2022/05/23 00:11:22;;;;;;;10.90;4.43;;;;;;;16.69;57.86;100616.75;5007817;28;20034;-77
2022/05/23 00:13:48;;;;;;;6.97;4.00;;;;;;;16.68;57.81;100612.41;5006047;28;20034;-78
2022/05/23 00:16:18;;;;;;;8.35;4.03;;;;;;;16.65;57.94;100609.97;5008007;28;20493;-77
2022/05/23 00:18:44;;;;;;;6.32;3.63;;;;;;;16.64;58.07;100610.88;5004577;28;20076;-77
2022/05/23 00:21:10;;;;;;;7.57;3.90;;;;;;;16.64;58.12;100624.88;5006497;28;20365;-78
2022/05/23 00:23:35;;;;;;;6.07;3.83;;;;;;;16.63;58.41;100638.94;5010006;28;20038;-78
2022/05/23 00:26:00;;;;;;;5.60;3.63;;;;;;;16.64;58.27;100639.78;5010007;28;20487;-78
2022/05/23 00:28:26;;;;;;;7.38;3.95;;;;;;;16.63;57.84;100645.97;5006824;28;22120;-78
2022/05/23 00:30:51;;;;;;;6.40;3.78;;;;;;;16.63;58.13;100636.31;5004677;28;20397;-78
2022/05/23 00:36:00;;;;;;;8.32;4.28;;;;;;;16.61;58.32;100630.31;5006190;28;20040;-78
2022/05/23 00:38:26;;;;;;;6.88;4.00;;;;;;;16.62;58.07;100631.13;5007873;28;20045;-78
2022/05/23 00:44:01;;;;;;;;;;;;;;;16.64;57.06;100626.66;5008182;28;20045;-78
2022/05/23 00:46:27;;;;;;;7.13;3.88;;;;;;;16.58;58.04;100621.72;5006838;28;20372;-78
2022/05/23 00:48:52;;;;;;;9.55;3.83;;;;;;;16.54;58.39;100621.91;5005043;28;20042;-78
2022/05/23 00:51:18;;;;;;;6.68;4.18;;;;;;;16.49;59.03;100615.19;5004844;28;20022;-78
2022/05/23 00:53:51;;;;;;;7.25;3.80;;;;;;;16.48;59.32;100619.59;5004061;28;20449;-78
2022/05/23 00:56:20;;;;;;;7.38;4.35;;;;;;;16.42;59.86;100619.94;5005016;28;20042;-78
2022/05/23 00:58:58;;;;;;;10.52;4.22;;;;;;;16.39;59.60;100614.88;5005109;28;20022;-78
2022/05/23 01:01:27;;;;;;;8.65;4.38;;;;;;;16.34;59.84;100609.00;5007999;28;20205;-78
2022/05/23 01:03:53;;;;;;;7.78;4.30;;;;;;;16.32;59.55;100609.06;5005646;28;20382;-78
2022/05/23 01:06:18;;;;;;;6.90;4.07;;;;;;;16.29;59.47;100603.16;5009765;28;20040;-78
2022/05/23 01:08:45;;;;;;;7.55;4.00;;;;;;;16.28;59.45;100601.44;5007819;28;20045;-78
2022/05/23 01:11:12;;;;;;;6.68;3.85;;;;;;;16.27;60.00;100598.00;5005137;28;20030;-78
2022/05/23 01:13:38;;;;;;;7.38;4.03;;;;;;;16.26;59.50;100592.81;5004081;28;20026;-78
2022/05/23 01:16:03;;;;;;;5.28;3.95;;;;;;;16.26;59.81;100592.81;5006696;28;20109;-77
2022/05/23 01:18:29;;;;;;;7.03;3.85;;;;;;;16.24;59.82;100598.97;5007435;28;20044;-78
2022/05/23 01:21:01;;;;;;;7.45;3.78;;;;;;;16.24;59.67;100606.03;5004327;28;20059;-78
2022/05/23 01:23:50;;;;;;;7.20;4.10;;;;;;;16.21;59.38;100614.91;5007993;28;20029;-78
2022/05/23 01:26:15;;;;;;;7.25;4.18;;;;;;;16.19;60.95;100618.53;5008239;28;20033;-78
2022/05/23 01:28:42;;;;;;;7.72;4.15;;;;;;;16.16;60.89;100614.31;5008630;28;20026;-78
2022/05/23 01:31:11;;;;;;;6.95;4.25;;;;;;;16.15;60.24;100609.13;5010127;28;20128;-78
2022/05/23 01:33:37;;;;;;;8.32;4.30;;;;;;;16.14;60.34;100602.22;5007285;28;20473;-78
2022/05/23 01:36:03;;;;;;;8.10;4.53;;;;;;;16.13;61.12;100597.88;5007065;28;20032;-78
2022/05/23 01:38:28;;;;;;;6.53;4.32;;;;;;;16.11;60.04;100597.13;5009637;28;20026;-78
2022/05/23 01:40:58;;;;;;;7.30;4.32;;;;;;;16.10;59.95;100603.28;5008759;28;20437;-78
2022/05/23 01:43:24;;;;;;;6.68;4.38;;;;;;;16.07;60.32;100599.91;5009100;28;20095;-78
2022/05/23 01:45:50;;;;;;;8.02;4.35;;;;;;;16.03;60.78;100587.84;5009125;28;20121;-78
2022/05/23 01:48:15;;;;;;;5.72;4.00;;;;;;;16.01;60.57;100594.97;5010390;28;20038;-78
2022/05/23 01:50:40;;;;;;;8.60;4.50;;;;;;;15.99;60.49;100585.47;5009338;28;20476;-78
2022/05/23 01:53:05;;;;;;;6.72;4.13;;;;;;;15.98;60.60;100583.78;5008053;28;20042;-78
2022/05/23 01:55:31;;;;;;;10.50;4.63;;;;;;;15.94;61.24;100583.09;5008982;28;20034;-78
2022/05/23 01:57:57;;;;;;;6.22;4.03;;;;;;;15.94;60.64;100588.34;5007314;28;20022;-78
2022/05/23 02:03:06;;;;;;;6.32;4.22;;;;;;;15.87;62.35;100594.84;5008008;28;20041;-78
2022/05/23 02:05:33;;;;;;;6.65;4.47;;;;;;;15.85;62.88;100579.19;5009138;28;20025;-78
2022/05/23 02:07:59;;;;;;;6.88;4.25;;;;;;;15.83;61.77;100581.00;5009403;28;20052;-78
2022/05/23 02:10:24;;;;;;;8.07;4.80;;;;;;;15.81;61.93;100577.63;5008553;28;20033;-78
2022/05/23 02:12:49;;;;;;;8.05;4.72;;;;;;;15.78;62.02;100562.03;5006011;28;20026;-78
2022/05/23 02:15:16;;;;;;;7.38;4.88;;;;;;;15.76;62.28;100563.88;5006118;28;20033;-78
2022/05/23 02:17:41;;;;;;;8.30;4.88;;;;;;;15.73;61.96;100556.16;5007217;28;20105;-78
2022/05/23 02:20:08;;;;;;;7.30;4.70;;;;;;;15.70;62.08;100558.97;5006058;28;20125;-78
2022/05/23 02:22:34;;;;;;;8.30;4.88;;;;;;;15.67;62.73;100565.22;5007768;28;20022;-78
2022/05/23 02:25:01;;;;;;;9.00;5.32;;;;;;;15.65;62.31;100569.69;5008163;28;20030;-78
2022/05/23 02:27:27;;;;;;;7.25;4.85;;;;;;;15.63;62.69;100564.53;5006174;28;20028;-78
2022/05/23 02:29:52;;;;;;;8.20;4.97;;;;;;;15.61;63.32;100569.00;5006261;28;20033;-78
2022/05/23 02:32:17;;;;;;;7.70;5.00;;;;;;;15.58;63.74;100560.44;5007099;28;20029;-78
2022/05/23 02:34:43;;;;;;;6.85;4.65;;;;;;;15.55;63.05;100556.19;5007063;28;20026;-78
2022/05/23 02:37:09;;;;;;;8.00;4.90;;;;;;;15.54;62.66;100554.50;5005150;28;20198;-78
2022/05/23 02:39:34;;;;;;;8.90;4.95;;;;;;;15.52;62.97;100548.50;5005222;28;20045;-78
2022/05/23 02:41:59;;;;;;;8.30;5.22;;;;;;;15.50;63.98;100541.63;5002319;28;20122;-78
2022/05/23 02:44:25;;;;;;;9.25;5.18;;;;;;;15.47;64.74;100545.28;5005688;28;20041;-78
2022/05/23 02:46:50;;;;;;;8.63;4.97;;;;;;;15.46;64.14;100549.66;5004715;28;20565;-78
2022/05/23 02:49:15;;;;;;;8.02;4.85;;;;;;;15.46;64.33;100540.94;5005463;28;20064;-78
2022/05/23 02:51:41;;;;;;;8.30;4.60;;;;;;;15.44;63.75;100532.31;5006179;28;20116;-78
2022/05/23 02:54:06;;;;;;;8.35;4.93;;;;;;;15.43;63.75;100535.84;5005458;28;20416;-78
2022/05/23 02:56:32;;;;;;;8.48;4.72;;;;;;;15.43;64.01;100528.84;5006202;28;20115;-78
2022/05/23 02:58:57;;;;;;;10.73;5.05;;;;;;;15.41;64.70;100520.22;5006385;28;20072;-78
2022/05/23 03:01:23;;;;;;;8.60;5.00;;;;;;;15.41;63.40;100522.84;5006398;28;20030;-78
2022/05/23 03:03:48;;;;;;;8.60;5.10;;;;;;;15.41;63.43;100506.25;5006027;28;20044;-78
2022/05/23 03:06:14;;;;;;;9.95;5.00;;;;;;;15.40;63.33;100494.06;5008436;28;20025;-78
2022/05/23 03:08:39;;;;;;;6.00;4.70;;;;;;;15.38;63.56;100486.28;5006658;28;20124;-78
2022/05/23 03:11:07;;;;;;;9.55;5.10;;;;;;;15.37;63.32;100476.75;5003632;28;20032;-78
2022/05/23 03:13:34;;;;;;;8.80;5.03;;;;;;;15.36;63.67;100461.94;5002468;28;20096;-78
2022/05/23 03:16:00;;;;;;;7.97;4.80;;;;;;;15.35;63.69;100454.16;5002961;28;20026;-78
2022/05/23 03:18:25;;;;;;;9.98;5.68;;;;;;;15.32;63.87;100447.28;5004062;28;20026;-77
2022/05/23 03:20:56;;;;;;;9.40;5.00;;;;;;;15.29;63.71;100440.44;5003722;28;20485;-77
2022/05/23 03:28:49;;;;;;;8.48;5.07;;;;;;;15.24;64.28;100431.97;5004352;28;20048;-77
2022/05/23 03:31:14;;;;;;;8.60;5.22;;;;;;;15.22;64.23;100432.97;5002778;28;20034;-77
2022/05/23 03:33:39;;;;;;;8.18;4.97;;;;;;;15.20;64.33;100429.59;5004345;28;20065;-77
2022/05/23 03:36:05;;;;;;;7.47;5.25;;;;;;;15.19;65.01;100439.25;5002371;28;20034;-77
2022/05/23 03:38:30;;;;;;;8.95;5.18;;;;;;;15.17;65.29;100425.38;5002954;28;20476;-77
2022/05/23 03:40:55;;;;;;;9.13;5.45;;;;;;;15.16;65.12;100421.88;5005771;28;20466;-77
2022/05/23 03:43:21;;;;;;;10.15;5.97;;;;;;;15.13;65.29;100419.41;5009531;28;20029;-77
2022/05/23 03:45:46;;;;;;;10.63;5.38;;;;;;;15.13;65.47;100413.34;5009685;28;20028;-78
2022/05/23 03:48:12;;;;;;;9.57;5.32;;;;;;;15.09;65.54;100396.06;5004235;28;20104;-77
2022/05/23 03:50:38;;;;;;;10.23;5.50;;;;;;;15.08;65.62;100391.75;5001783;28;21929;-77
2022/05/23 03:53:03;;;;;;;10.20;5.55;;;;;;;15.06;65.82;100391.84;5002785;28;20085;-77
2022/05/23 03:55:29;;;;;;;7.00;5.10;;;;;;;15.06;65.83;100396.22;5004593;28;20467;-77
2022/05/23 03:57:55;;;;;;;9.38;5.38;;;;;;;15.03;66.01;100395.47;5001490;28;20018;-77
2022/05/23 04:00:21;;;;;;;8.52;5.40;;;;;;;15.05;66.10;100391.91;5003962;28;20085;-77
2022/05/23 04:02:47;;;;;;;8.00;5.63;;;;;;;15.05;66.03;100389.28;4999952;28;20026;-77
2022/05/23 04:05:14;;;;;;;8.45;5.38;;;;;;;15.05;66.29;100390.16;5004086;28;20041;-77
2022/05/23 04:07:40;;;;;;;86.93;20.08;;;;;;;15.05;66.48;100394.53;5002510;28;20143;-77
2022/05/23 04:10:09;;;;;;;23.63;7.88;;;;;;;15.05;66.81;100384.91;5006067;28;20529;-77
2022/05/23 04:12:34;;;;;;;11.10;6.13;;;;;;;15.06;66.61;100381.38;5009442;28;20101;-77
2022/05/23 04:14:59;;;;;;;10.30;5.43;;;;;;;15.07;66.90;100388.31;5010431;28;20560;-77
2022/05/23 04:17:24;;;;;;;8.55;5.85;;;;;;;15.08;66.84;100390.00;5010293;28;20026;-77
2022/05/23 04:19:50;;;;;;;8.50;5.38;;;;;;;15.11;67.33;100383.75;5009667;28;20088;-77
2022/05/23 04:22:15;;;;;;;9.25;5.90;;;;;;;15.11;66.94;100378.50;5010688;28;20052;-77
2022/05/23 04:24:41;;;;;;;7.55;5.68;;;;;;;15.14;67.57;100373.13;5010798;28;20499;-78
2022/05/23 04:27:06;;;;;;;10.38;6.20;;;;;;;15.14;67.28;100368.72;5011479;28;20025;-77
2022/05/23 04:29:31;;;;;;;9.32;5.88;;;;;;;15.15;67.16;100361.72;5007264;28;20038;-77
2022/05/23 04:31:57;;;;;;;8.07;5.70;;;;;;;15.17;67.23;100359.84;5009635;28;20149;-77
2022/05/23 04:37:06;;;;;;;7.82;5.35;;;;;;;15.21;67.50;100361.38;5009523;28;20072;-77
2022/05/23 04:39:31;;;;;;;7.07;5.28;;;;;;;15.24;67.38;100355.13;5009956;28;20050;-77
2022/05/23 04:41:57;;;;;;;9.02;5.78;;;;;;;15.26;67.87;100353.28;5006092;28;20053;-77
2022/05/23 04:44:22;;;;;;;18.55;7.97;;;;;;;15.26;67.58;100356.72;5008114;28;20030;-77
2022/05/23 04:49:50;;;;;;;9.27;5.40;;;;;;;15.30;68.58;100353.03;5006282;28;20068;-77
2022/05/23 04:52:19;;;;;;;10.55;5.63;;;;;;;15.32;68.68;100355.56;5006704;28;20108;-78
2022/05/23 04:54:46;;;;;;;7.88;5.28;;;;;;;15.36;68.17;100345.78;5005269;28;20089;-79
2022/05/23 04:57:12;;;;;;;10.43;5.90;;;;;;;15.37;68.01;100339.59;5005659;28;20036;-78
2022/05/23 04:59:37;;;;;;;9.63;5.80;;;;;;;15.41;68.05;100335.88;5009941;28;20088;-78
2022/05/23 05:02:03;;;;;;;9.25;5.50;;;;;;;15.43;68.04;100326.16;5009697;28;20056;-78
2022/05/23 05:04:30;;;;;;;8.18;5.53;;;;;;;15.46;67.98;100323.38;5003508;28;20057;-78
2022/05/23 05:06:55;;;;;;;9.20;5.88;;;;;;;15.48;68.21;100329.38;5007184;28;20022;-78
2022/05/23 05:09:20;;;;;;;10.15;5.93;;;;;;;15.52;68.50;100333.53;5007896;28;20022;-78
2022/05/23 05:11:46;;;;;;;11.25;5.93;;;;;;;15.55;68.11;100330.72;5007360;28;20041;-78
2022/05/23 05:14:11;;;;;;;8.63;5.82;;;;;;;15.60;68.11;100333.94;5002499;28;20025;-78
2022/05/23 05:16:36;;;;;;;9.82;5.93;;;;;;;15.62;68.50;100326.84;5007000;28;20084;-78
2022/05/23 05:19:02;;;;;;;9.20;5.50;;;;;;;15.67;68.20;100325.75;5009067;28;20022;-78
2022/05/23 05:21:27;;;;;;;8.95;5.75;;;;;;;15.70;68.48;100320.34;5007379;28;20034;-78
2022/05/23 05:23:54;;;;;;;7.88;5.22;;;;;;;15.73;68.74;100310.50;5008754;28;20065;-78
2022/05/23 05:26:19;;;;;;;7.47;5.47;;;;;;;15.78;69.21;100299.75;5009993;28;20056;-78
2022/05/23 05:28:44;;;;;;;8.50;4.97;;;;;;;15.83;68.86;100296.88;5009133;28;20427;-78
2022/05/23 05:31:14;;;;;;;10.27;5.38;;;;;;;15.86;68.40;100287.09;5012088;28;20028;-78
2022/05/23 05:33:46;;;;;;;8.02;5.65;;;;;;;15.90;68.10;100285.97;5007939;28;20033;-78
2022/05/23 05:36:21;;;;;;;8.55;5.45;;;;;;;15.96;68.07;100287.41;5012864;28;20025;-79
2022/05/23 05:38:50;;;;;;;7.28;5.45;;;;;;;15.99;68.25;100278.50;5008638;28;20053;-79
2022/05/23 05:41:20;;;;;;;7.78;5.82;;;;;;;16.02;67.98;100276.56;5005839;28;20076;-78
2022/05/23 05:44:00;;;;;;;7.65;5.80;;;;;;;16.08;67.75;100270.09;5007037;28;20030;-78
2022/05/23 05:46:30;;;;;;;8.05;5.47;;;;;;;16.12;67.83;100269.00;5006738;28;20036;-78
2022/05/23 05:48:59;;;;;;;9.10;5.68;;;;;;;16.14;67.93;100269.75;5008138;28;20038;-78
2022/05/23 05:51:25;;;;;;;9.20;6.72;;;;;;;16.20;67.49;100273.78;5008572;28;20541;-78
2022/05/23 05:53:51;;;;;;;9.02;6.47;;;;;;;16.25;68.18;100271.75;5007755;28;20112;-78
2022/05/23 05:56:17;;;;;;;9.23;6.10;;;;;;;16.28;67.23;100262.84;5006874;28;20104;-78
2022/05/23 05:58:43;;;;;;;8.43;5.90;;;;;;;16.31;67.82;100254.78;5008128;28;20104;-78
2022/05/23 06:01:08;;;;;;;10.73;5.85;;;;;;;16.36;67.69;100252.75;5005434;28;20078;-78
2022/05/23 06:03:34;;;;;;;9.32;6.28;;;;;;;16.38;66.94;100250.88;5010159;28;20025;-78
2022/05/23 06:11:28;;;;;;;8.88;5.93;;;;;;;16.53;66.59;100239.44;5012427;28;20076;-78
2022/05/23 06:13:56;;;;;;;8.63;6.10;;;;;;;16.59;66.84;100240.00;5008878;28;20128;-78
2022/05/23 06:16:23;;;;;;;8.02;6.03;;;;;;;16.63;66.19;100244.13;5008667;28;20029;-78
2022/05/23 06:18:48;;;;;;;7.85;5.68;;;;;;;16.66;66.11;100244.78;5006673;28;20022;-79
2022/05/23 06:21:14;;;;;;;9.10;6.15;;;;;;;16.71;66.10;100239.28;5011510;28;20029;-79
2022/05/23 06:23:40;;;;;;;8.38;5.32;;;;;;;16.78;65.51;100235.31;5008334;28;20041;-78
2022/05/23 06:26:06;;;;;;;7.03;4.95;;;;;;;16.85;66.09;100225.25;5004792;28;20033;-79
2022/05/23 06:28:31;;;;;;;8.80;5.20;;;;;;;16.93;65.08;100227.41;5009727;28;20529;-79
2022/05/23 06:30:59;;;;;;;5.30;3.95;;;;;;;17.01;64.99;100221.72;5008854;28;20053;-78
2022/05/23 06:33:25;;;;;;;7.72;4.88;;;;;;;17.07;64.36;100219.56;5007687;28;20029;-78
2022/05/23 06:35:50;;;;;;;6.78;4.65;;;;;;;17.12;64.83;100216.63;5008690;28;20030;-79
2022/05/23 06:38:16;;;;;;;6.90;4.63;;;;;;;17.18;63.49;100212.78;5009691;28;20053;-78
2022/05/23 06:40:42;;;;;;;7.63;4.80;;;;;;;17.23;63.29;100208.91;5010772;28;20026;-79
2022/05/23 06:43:07;;;;;;;7.63;4.50;;;;;;;17.30;63.16;100214.59;5007210;28;20033;-79
2022/05/23 06:45:32;;;;;;;7.55;4.35;;;;;;;17.34;62.34;100204.72;5010593;28;20017;-79
2022/05/23 06:47:58;;;;;;;6.68;4.32;;;;;;;17.37;62.25;100200.13;5011405;28;20037;-79
2022/05/23 06:50:23;;;;;;;6.72;4.30;;;;;;;17.43;62.88;100202.34;5006624;28;20029;-79
2022/05/23 06:52:49;;;;;;;5.82;4.25;;;;;;;17.48;61.78;100193.31;5011990;28;20393;-79
2022/05/23 06:55:14;;;;;;;7.18;3.90;;;;;;;17.54;62.34;100198.19;5010120;28;20030;-79
2022/05/23 06:57:39;;;;;;;6.05;3.72;;;;;;;17.60;63.03;100188.13;5011650;28;20050;-79
2022/05/23 07:00:09;;;;;;;7.05;4.05;;;;;;;17.66;61.58;100186.84;5009781;28;20296;-79
2022/05/23 07:02:35;;;;;;;5.85;3.92;;;;;;;17.71;61.36;100190.03;5009662;28;20033;-78
2022/05/23 07:13:12;;;;;;;7.25;4.20;;;;;;;18.02;59.88;100193.28;5010043;28;20036;-78
2022/05/23 07:15:38;;;;;;;8.65;4.10;;;;;;;18.03;59.78;100200.22;5010356;28;20112;-78
2022/05/23 07:18:05;;;;;;;8.23;4.20;;;;;;;18.05;60.34;100208.00;5011288;28;20022;-78
2022/05/23 07:20:30;;;;;;;8.73;4.70;;;;;;;18.05;60.41;100208.00;5010095;28;20126;-79
2022/05/23 07:22:55;;;;;;;6.80;4.20;;;;;;;18.05;60.08;100197.47;5009778;28;20108;-79
2022/05/23 07:25:20;;;;;;;7.85;4.30;;;;;;;18.05;60.24;100200.97;5008965;28;20033;-78
2022/05/23 07:27:46;;;;;;;6.65;4.60;;;;;;;18.07;59.62;100205.28;5010479;28;20030;-78
2022/05/23 07:30:11;;;;;;;6.82;4.00;;;;;;;18.07;60.65;100200.84;5010985;28;20429;-78
2022/05/23 07:32:36;;;;;;;6.57;4.63;;;;;;;18.09;60.71;100188.44;5010411;28;20112;-79
2022/05/23 07:35:02;;;;;;;7.18;4.50;;;;;;;18.12;60.47;100190.00;5010377;28;20021;-78
2022/05/23 07:37:28;;;;;;;8.73;4.22;;;;;;;18.18;60.09;100184.31;5010245;28;20365;-78
2022/05/23 07:39:56;;;;;;;8.82;4.43;;;;;;;18.24;60.40;100190.97;5010973;28;20025;-79
2022/05/23 07:42:21;;;;;;;5.15;4.18;;;;;;;18.26;59.41;100192.56;5011131;28;20255;-78
2022/05/23 07:44:47;;;;;;;6.45;4.70;;;;;;;18.29;59.44;100189.69;5014351;28;20457;-78
2022/05/23 07:47:12;;;;;;;6.47;4.40;;;;;;;18.33;60.79;100185.91;5014206;28;20049;-78
2022/05/23 07:49:38;;;;;;;8.20;4.57;;;;;;;18.36;59.54;100184.84;5014496;28;20473;-79
2022/05/23 07:52:04;;;;;;;8.40;4.28;;;;;;;18.39;59.23;100184.63;5014927;28;20539;-78
2022/05/23 08:02:42;;;;;;;7.13;3.78;;;;;;;18.56;59.59;100175.56;5014943;28;20060;-78
2022/05/23 08:05:08;;;;;;;9.07;4.10;;;;;;;18.58;58.23;100173.69;5014714;28;20030;-79
2022/05/23 08:07:33;;;;;;;4.93;3.45;;;;;;;18.62;59.33;100175.13;5012850;28;20456;-79
2022/05/23 08:10:00;;;;;;;8.95;4.28;;;;;;;18.65;58.04;100167.00;5012524;28;20045;-79
2022/05/23 08:12:27;;;;;;;7.47;3.50;;;;;;;18.70;57.80;100165.84;5013811;28;20088;-78
2022/05/23 08:14:52;;;;;;;6.40;3.88;;;;;;;18.76;58.03;100163.63;5006448;28;20064;-79
2022/05/23 08:17:18;;;;;;;6.78;3.65;;;;;;;18.84;58.64;100146.44;5013572;28;20054;-79
2022/05/23 08:19:43;;;;;;;8.13;3.53;;;;;;;18.91;56.63;100151.13;5009404;28;20072;-79
2022/05/23 08:22:10;;;;;;;5.03;3.33;;;;;;;18.97;57.54;100152.53;5010612;28;21383;-79
2022/05/23 08:24:35;;;;;;;9.15;3.80;;;;;;;19.05;58.44;100159.88;5012677;28;20022;-79
2022/05/23 08:27:00;;;;;;;6.97;3.50;;;;;;;19.16;58.17;100152.00;5011968;28;20374;-79
2022/05/23 08:29:27;;;;;;;6.20;3.78;;;;;;;19.26;56.37;100149.53;5009510;28;20088;-78
2022/05/23 08:31:52;;;;;;;4.45;3.28;;;;;;;19.35;56.35;100140.13;5011557;28;20497;-79
2022/05/23 08:34:17;;;;;;;6.80;3.38;;;;;;;19.39;57.09;100142.41;5009882;28;20040;-78
2022/05/23 08:36:43;;;;;;;5.60;3.58;;;;;;;19.44;56.86;100141.22;5005250;28;20024;-78
2022/05/23 08:39:09;;;;;;;9.77;4.20;;;;;;;19.47;57.31;100136.56;5004358;28;20030;-79
2022/05/23 08:41:40;;;;;;;6.97;3.53;;;;;;;19.50;56.27;100144.25;5011104;28;20034;-79
2022/05/23 08:44:06;;;;;;;7.30;3.60;;;;;;;19.50;55.10;100141.59;5013961;28;20076;-79
2022/05/23 08:46:45;;;;;;;7.43;3.28;;;;;;;19.50;56.74;100133.69;5014003;28;20702;-79
2022/05/23 08:49:24;;;;;;;5.90;3.70;;;;;;;19.52;55.79;100125.69;5010902;28;20046;-79
2022/05/23 08:51:57;;;;;;;7.20;3.53;;;;;;;19.53;56.28;100116.81;5013310;28;20040;-79
2022/05/23 08:54:42;;;;;;;5.97;3.58;;;;;;;19.54;56.85;100118.50;5013176;28;20041;-79
2022/05/23 08:57:16;;;;;;;6.40;3.50;;;;;;;19.52;55.73;100109.84;5011172;28;20034;-79
2022/05/23 08:59:45;;;;;;;5.35;3.72;;;;;;;19.52;57.08;100109.84;5010462;28;20101;-79
2022/05/23 09:02:18;;;;;;;6.43;3.83;;;;;;;19.47;57.70;100104.91;5010030;28;20061;-79
2022/05/23 09:04:52;;;;;;;5.22;3.53;;;;;;;19.44;58.25;100099.88;5013228;28;20030;-79
2022/05/23 09:07:31;;;;;;;7.30;3.72;;;;;;;19.42;57.99;100099.97;5010029;28;20026;-79
2022/05/23 09:09:59;;;;;;;7.93;4.43;;;;;;;19.40;58.45;100101.06;5011964;28;20233;-79
2022/05/23 09:12:25;;;;;;;4.88;3.40;;;;;;;19.38;58.61;100088.00;5011758;28;20028;-79
2022/05/23 09:14:50;;;;;;;6.25;3.33;;;;;;;19.38;57.33;100085.34;5011627;28;20033;-79
2022/05/23 09:17:22;;;;;;;5.80;3.95;;;;;;;19.37;57.98;100074.91;5012175;28;20428;-79
2022/05/23 09:19:55;;;;;;;5.57;3.50;;;;;;;19.40;57.56;100066.75;5012099;28;20022;-79
2022/05/23 09:22:43;;;;;;;4.57;3.35;;;;;;;19.46;57.93;100060.19;5009307;28;20116;-79
2022/05/23 09:25:11;;;;;;;5.30;3.20;;;;;;;19.53;57.81;100061.41;5011219;28;21531;-79
2022/05/23 09:27:41;;;;;;;5.20;3.88;;;;;;;19.54;57.39;100058.63;5011441;28;20156;-79
2022/05/23 09:30:11;;;;;;;7.60;3.65;;;;;;;19.56;56.93;100051.44;5012878;28;20503;-80
2022/05/23 09:33:05;;;;;;;6.97;3.90;;;;;;;19.57;56.45;100039.09;5009968;28;20030;-80
2022/05/23 09:35:42;;;;;;;7.40;3.97;;;;;;;19.56;56.85;100042.69;5011624;28;20152;-79
2022/05/23 09:38:21;;;;;;;5.35;3.85;;;;;;;19.55;57.37;100041.84;5023374;28;20026;-79
2022/05/23 09:40:47;;;;;;;9.10;4.40;;;;;;;19.56;56.99;100037.41;5008926;28;20124;-79
2022/05/23 09:49:14;;;;;;;6.75;3.72;;;;;;;19.61;57.66;100013.31;5006260;28;20056;-78
2022/05/23 09:51:49;;;;;;;5.78;3.58;;;;;;;19.64;57.18;99997.25;5008230;28;20029;-79
2022/05/23 09:54:19;;;;;;;5.70;3.58;;;;;;;19.66;57.03;99998.81;5009005;28;20129;-78
2022/05/23 09:56:45;;;;;;;5.00;3.47;;;;;;;19.69;56.84;99989.81;5007769;28;20027;-79
2022/05/23 09:59:24;;;;;;;5.05;3.55;;;;;;;19.76;56.81;99980.47;5007382;28;20018;-79
2022/05/23 10:01:49;;;;;;;9.25;3.42;;;;;;;19.81;56.83;99982.75;5008033;28;20037;-76
2022/05/23 10:04:43;;;;;;;7.53;3.05;;;;;;;19.93;56.72;99981.78;5009906;28;20026;-79
2022/05/23 10:07:20;;;;;;;5.40;3.35;;;;;;;20.02;56.22;99983.72;5009431;28;20030;-79
2022/05/23 10:10:05;;;;;;;6.70;3.90;;;;;;;20.15;56.77;99980.91;5007864;28;20050;-78
2022/05/23 10:12:32;;;;;;;6.03;3.45;;;;;;;20.35;56.46;99981.13;5007525;28;20109;-78
2022/05/23 10:15:10;;;;;;;5.63;3.30;;;;;;;20.45;55.57;99960.94;5006645;28;20033;-79
2022/05/23 10:17:41;;;;;;;5.43;3.50;;;;;;;20.54;55.74;99967.25;5008200;28;20033;-78
2022/05/23 10:20:29;;;;;;;5.82;3.55;;;;;;;20.65;55.92;99966.38;5009808;28;20029;-79
2022/05/23 10:22:58;;;;;;;6.40;3.25;;;;;;;20.74;56.73;99957.69;5008631;28;20025;-79
2022/05/23 10:25:25;;;;;;;5.07;3.22;;;;;;;20.81;55.61;99965.97;5008901;28;20049;-79
2022/05/23 10:27:56;;;;;;;5.03;3.45;;;;;;;20.88;56.86;99966.28;5009610;28;20077;-79
2022/05/23 10:30:25;;;;;;;7.00;4.00;;;;;;;20.92;55.28;99960.63;5005172;28;20030;-78
2022/05/23 10:32:58;;;;;;;5.95;3.50;;;;;;;20.90;54.76;99959.06;5007714;28;20026;-78
2022/05/23 10:35:29;;;;;;;5.22;3.67;;;;;;;20.91;55.57;99958.97;5009903;28;20477;-78
2022/05/23 10:42:07;;;;;;;6.25;3.40;;;;;;;20.96;53.84;99963.88;5007109;28;20033;-79
2022/05/23 10:43:30;;;;;;;5.43;3.30;;;;;;;21.00;53.80;99954.72;5006925;28;20121;-79
2022/05/23 10:45:59;;;;;;;8.57;3.47;;;;;;;21.02;53.21;99955.41;5007677;28;20104;-80
2022/05/23 10:48:43;;;;;;;5.88;3.38;;;;;;;21.00;52.12;99944.13;5006535;28;20042;-79
2022/05/23 10:51:08;;;;;;;6.55;3.35;;;;;;;20.98;53.03;99946.06;5007437;28;20406;-79
2022/05/23 10:53:41;;;;;;;6.88;3.65;;;;;;;21.02;53.83;99942.19;5006380;28;20021;-78
2022/05/23 10:56:26;;;;;;;6.38;3.30;;;;;;;21.07;53.72;99942.63;5007673;28;20105;-79
2022/05/23 10:58:57;;;;;;;10.75;3.97;;;;;;;21.14;55.32;99929.72;5007939;28;20034;-79
2022/05/23 11:01:31;;;;;;;6.80;3.60;;;;;;;21.20;54.02;99912.50;5008068;28;20025;-79
2022/05/23 11:04:08;;;;;;;6.97;3.85;;;;;;;21.23;52.69;99901.66;5007087;28;20038;-79
2022/05/23 11:06:58;;;;;;;6.32;3.45;;;;;;;21.27;53.64;99896.94;5009028;28;20029;-79
2022/05/23 11:09:57;;;;;;;6.72;3.53;;;;;;;21.36;53.67;99890.84;5007127;28;20030;-79
2022/05/23 11:12:30;;;;;;;5.63;3.40;;;;;;;21.44;52.04;99892.84;4994224;28;20041;-79
2022/05/23 11:15:26;;;;;;;7.30;4.10;;;;;;;21.47;52.89;99882.81;5008870;28;20022;-79
2022/05/23 11:18:06;;;;;;;7.43;3.83;;;;;;;21.53;52.20;99873.50;5007651;28;20037;-79
2022/05/23 11:20:37;;;;;;;9.70;3.70;;;;;;;21.61;53.15;99860.47;5009094;28;20060;-79
2022/05/23 11:23:25;;;;;;;4.60;2.95;;;;;;;21.67;52.51;99843.19;5007646;28;20119;-78
2022/05/23 11:25:58;;;;;;;5.43;3.50;;;;;;;21.72;51.36;99826.91;5006650;28;20105;-79
2022/05/23 11:34:32;;;;;;;6.47;3.40;;;;;;;21.93;50.66;99810.91;5006738;28;20433;-80
2022/05/23 11:39:48;;;;;;;5.32;2.45;;;;;;;22.13;50.14;99795.84;5006859;28;20084;-78
2022/05/23 11:42:39;;;;;;;5.47;2.13;;;;;;;22.23;49.77;99796.66;5009901;28;20033;-78
2022/05/23 11:45:56;;;;;;;5.40;2.85;;;;;;;22.31;48.07;99789.84;5004454;28;20334;-78
2022/05/23 11:47:51;;;;;;;4.70;2.50;;;;;;;22.37;47.51;99791.94;5007824;28;20054;-78
2022/05/23 11:50:23;;;;;;;4.68;2.30;;;;;;;22.47;46.83;99778.66;5009192;28;20638;-78
2022/05/23 11:53:12;;;;;;;4.15;2.08;;;;;;;22.56;47.97;99777.81;5009388;28;20049;-78
2022/05/23 11:55:54;;;;;;;3.92;2.00;;;;;;;22.64;47.98;99791.19;5006579;28;20030;-79
2022/05/23 11:58:25;;;;;;;3.35;1.95;;;;;;;22.74;47.62;99784.06;5006131;28;20029;-79
2022/05/23 12:01:14;;;;;;;3.58;1.98;;;;;;;22.81;48.31;99776.34;5021211;28;20034;-78
2022/05/23 12:03:51;;;;;;;3.13;2.10;;;;;;;22.86;48.19;99760.84;4999574;28;20033;-80
2022/05/23 12:06:23;;;;;;;3.75;2.20;;;;;;;22.86;47.43;99765.28;5007550;28;20036;-77
2022/05/23 12:08:57;;;;;;;4.55;1.90;;;;;;;22.84;47.56;99762.81;5007797;28;20093;-78
2022/05/23 12:11:27;;;;;;;4.68;2.10;;;;;;;22.78;47.88;99752.78;5006844;28;20038;-78
2022/05/23 12:13:58;;;;;;;5.07;2.03;;;;;;;22.72;45.11;99748.88;5008729;28;20079;-78
2022/05/23 12:16:29;;;;;;;4.95;2.00;;;;;;;22.66;45.85;99751.28;5008952;28;20268;-78
2022/05/23 12:19:11;;;;;;;6.85;2.72;;;;;;;22.61;47.03;99753.53;5008825;28;20014;-79
2022/05/23 12:21:39;;;;;;;4.47;2.33;;;;;;;22.49;45.26;99756.38;5008449;28;20049;-78
2022/05/23 12:24:22;;;;;;;4.53;1.88;;;;;;;22.41;47.35;99751.75;5008483;28;20112;-79
2022/05/23 12:26:51;;;;;;;3.90;2.03;;;;;;;22.35;47.36;99748.84;5007276;28;20030;-79
2022/05/23 12:29:34;;;;;;;4.00;2.58;;;;;;;22.28;47.92;99748.59;5007997;28;20033;-82
2022/05/23 12:32:22;;;;;;;7.07;2.50;;;;;;;22.22;49.58;99747.31;5009325;28;20026;-77
2022/05/23 12:34:49;;;;;;;5.13;2.60;;;;;;;22.15;49.35;99740.94;5009829;28;20038;-79